createdAt,value
2019-02-19T00:00:48.620Z,2.53
2019-02-19T00:01:48.776Z,2.46
2019-02-19T00:02:48.788Z,2.48
2019-02-19T00:03:48.803Z,2.56
2019-02-19T00:04:48.818Z,2.56
2019-02-19T00:06:48.858Z,2.63
2019-02-19T00:07:48.854Z,2.64
2019-02-19T00:08:48.883Z,2.57
2019-02-19T00:09:48.886Z,2.49
2019-02-19T00:10:48.896Z,2.59
2019-02-19T00:11:48.916Z,2.59
2019-02-19T00:12:48.927Z,2.57
2019-02-19T00:13:48.940Z,2.59
2019-02-19T00:14:48.951Z,2.53
2019-02-19T00:15:48.965Z,2.52
2019-02-19T00:16:48.995Z,2.41
2019-02-19T00:17:49.001Z,2.46
2019-02-19T00:18:49.010Z,2.52
2019-02-19T00:20:49.035Z,2.45
2019-02-19T00:23:03.740Z,2.42
2019-02-19T00:23:49.076Z,2.52
2019-02-19T00:24:49.090Z,2.34
2019-02-19T00:25:49.119Z,2.48
2019-02-19T00:26:49.116Z,2.53
2019-02-19T00:27:49.128Z,2.49
2019-02-19T00:29:03.816Z,2.45
2019-02-19T00:29:49.156Z,2.54
2019-02-19T00:30:49.171Z,2.54
2019-02-19T00:32:49.201Z,2.52
2019-02-19T00:34:49.227Z,2.46
2019-02-19T00:35:49.000Z,2.49
2019-02-19T00:37:03.928Z,2.31
2019-02-19T00:37:49.304Z,2.48
2019-02-19T00:38:49.292Z,2.43
2019-02-19T00:39:49.298Z,2.45
2019-02-19T00:40:49.353Z,2.53
2019-02-19T00:41:49.322Z,2.45
2019-02-19T00:42:49.340Z,2.42
2019-02-19T00:44:04.022Z,2.39
2019-02-19T00:44:49.544Z,2.34
2019-02-19T00:46:49.150Z,2.43
2019-02-19T00:48:49.438Z,2.34
2019-02-19T00:49:49.441Z,2.39
2019-02-19T00:50:49.450Z,2.34
2019-02-19T00:52:49.478Z,2.39
2019-02-19T00:53:49.483Z,2.38
2019-02-19T00:54:49.500Z,2.42
2019-02-19T00:55:49.516Z,2.31
2019-02-19T00:56:49.536Z,2.36
2019-02-19T00:57:49.537Z,2.21
2019-02-19T00:58:49.554Z,2.24
2019-02-19T00:59:49.572Z,2.3
2019-02-19T01:00:49.580Z,2.2
2019-02-19T01:01:49.595Z,2.18
2019-02-19T01:02:49.610Z,2.17
2019-02-19T01:03:49.619Z,2.17
2019-02-19T01:04:49.743Z,2.17
2019-02-19T01:05:49.647Z,2.09
2019-02-19T01:06:49.662Z,2.18
2019-02-19T01:07:49.682Z,2.21
2019-02-19T01:09:04.366Z,2.21
2019-02-19T01:09:49.705Z,2.21
2019-02-19T01:10:49.715Z,2.24
2019-02-19T01:11:49.731Z,2.21
2019-02-19T01:12:49.740Z,2.17
2019-02-19T01:13:49.755Z,2.1
2019-02-19T01:15:04.440Z,2.16
2019-02-19T01:15:49.788Z,2.09
2019-02-19T01:16:49.802Z,2.18
2019-02-19T01:17:49.808Z,2.21
2019-02-19T01:18:49.834Z,2.23
2019-02-19T01:19:49.837Z,2.23
2019-02-19T01:20:49.850Z,2.1
2019-02-19T01:22:49.891Z,2.02
2019-02-19T01:23:49.888Z,2.17
2019-02-19T01:25:49.929Z,2.12
2019-02-19T01:26:49.933Z,1.98
2019-02-19T01:27:49.943Z,2
2019-02-19T01:28:49.959Z,2.05
2019-02-19T01:29:49.968Z,2.02
2019-02-19T01:30:49.983Z,1.91
2019-02-19T01:31:49.995Z,1.83
2019-02-19T01:32:50.008Z,1.87
2019-02-19T01:33:50.026Z,1.91
2019-02-19T01:34:50.039Z,1.84
2019-02-19T01:35:50.055Z,1.86
2019-02-19T01:36:50.070Z,1.88
2019-02-19T01:37:50.076Z,1.8
2019-02-19T01:38:49.847Z,1.8
2019-02-19T01:39:50.312Z,1.84
2019-02-19T01:41:04.787Z,1.79
2019-02-19T01:41:50.132Z,1.81
2019-02-19T01:42:50.143Z,1.88
2019-02-19T01:44:04.830Z,1.81
2019-02-19T01:44:50.168Z,1.88
2019-02-19T01:45:50.181Z,1.93
2019-02-19T01:46:50.293Z,1.95
2019-02-19T01:47:50.215Z,1.86
2019-02-19T01:48:50.224Z,1.87
2019-02-19T01:49:50.271Z,1.91
2019-02-19T01:51:50.260Z,1.81
2019-02-19T01:52:50.273Z,1.8
2019-02-19T01:53:50.286Z,1.8
2019-02-19T01:54:50.316Z,1.9
2019-02-19T01:55:50.314Z,1.87
2019-02-19T01:57:05.035Z,1.86
2019-02-19T01:57:50.347Z,1.84
2019-02-19T01:58:50.362Z,1.87
2019-02-19T01:59:50.119Z,1.87
2019-02-19T02:00:50.380Z,1.84
2019-02-19T02:01:50.399Z,1.8
2019-02-19T02:02:50.520Z,1.9
2019-02-19T02:03:50.421Z,1.8
2019-02-19T02:04:50.433Z,1.87
2019-02-19T02:05:50.447Z,1.79
2019-02-19T02:06:50.558Z,1.86
2019-02-19T02:07:50.472Z,1.9
2019-02-19T02:08:50.485Z,1.87
2019-02-19T02:09:50.501Z,1.83
2019-02-19T02:10:50.512Z,1.81
2019-02-19T02:12:05.199Z,1.79
2019-02-19T02:12:50.538Z,1.77
2019-02-19T02:13:50.309Z,1.79
2019-02-19T02:14:50.565Z,1.8
2019-02-19T02:15:50.581Z,1.87
2019-02-19T02:16:50.616Z,1.86
2019-02-19T02:17:50.775Z,1.99
2019-02-19T02:18:50.652Z,1.98
2019-02-19T02:19:50.755Z,1.86
2019-02-19T02:20:50.667Z,1.99
2019-02-19T02:21:50.680Z,2.03
2019-02-19T02:22:50.703Z,2
2019-02-19T02:23:50.712Z,1.99
2019-02-19T02:25:05.385Z,2.03
2019-02-19T02:25:50.736Z,2.05
2019-02-19T02:26:50.751Z,2.02
2019-02-19T02:27:50.765Z,1.95
2019-02-19T02:28:50.779Z,2
2019-02-19T02:29:50.785Z,1.98
2019-02-19T02:31:50.827Z,1.88
2019-02-19T02:32:50.827Z,1.93
2019-02-19T02:34:05.508Z,2.06
2019-02-19T02:34:50.859Z,1.99
2019-02-19T02:35:50.869Z,2
2019-02-19T02:36:50.897Z,2.05
2019-02-19T02:38:05.574Z,2.06
2019-02-19T02:38:50.673Z,2
2019-02-19T02:39:50.920Z,2
2019-02-19T02:40:50.947Z,2.12
2019-02-19T02:41:50.955Z,2.1
2019-02-19T02:42:50.981Z,2.12
2019-02-19T02:44:05.406Z,2.31
2019-02-19T02:44:50.984Z,2.28
2019-02-19T02:45:58.191Z,2.24
2019-02-19T02:47:51.026Z,2.35
2019-02-19T02:48:51.039Z,2.36
2019-02-19T02:49:51.061Z,2.48
2019-02-19T02:50:51.065Z,2.56
2019-02-19T02:52:05.742Z,2.42
2019-02-19T02:52:51.090Z,2.54
2019-02-19T02:53:51.119Z,2.46
2019-02-19T02:54:51.165Z,2.52
2019-02-19T02:56:05.818Z,2.56
2019-02-19T02:57:05.804Z,2.57
2019-02-19T02:57:51.161Z,2.49
2019-02-19T02:58:51.175Z,2.54
2019-02-19T03:00:05.844Z,2.49
2019-02-19T03:00:51.195Z,2.53
2019-02-19T03:02:51.283Z,2.48
2019-02-19T03:03:51.245Z,2.52
2019-02-19T03:04:51.260Z,2.56
2019-02-19T03:05:51.285Z,2.56
2019-02-19T03:06:51.274Z,2.54
2019-02-19T03:09:51.325Z,2.41
2019-02-19T03:11:06.096Z,2.43
2019-02-19T03:11:51.343Z,2.45
2019-02-19T03:12:51.391Z,2.41
2019-02-19T03:13:51.388Z,2.53
2019-02-19T03:14:51.388Z,2.46
2019-02-19T03:16:06.055Z,2.56
2019-02-19T03:16:51.406Z,2.53
2019-02-19T03:17:51.438Z,2.52
2019-02-19T03:18:51.445Z,2.53
2019-02-19T03:19:51.479Z,2.41
2019-02-19T03:20:51.464Z,2.38
2019-02-19T03:22:51.492Z,2.3
2019-02-19T03:24:51.516Z,2.34
2019-02-19T03:25:51.538Z,2.49
2019-02-19T03:26:51.542Z,2.34
2019-02-19T03:27:51.551Z,2.41
2019-02-19T03:28:51.573Z,2.39
2019-02-19T03:30:51.606Z,2.43
2019-02-19T03:32:06.272Z,2.46
2019-02-19T03:32:51.666Z,2.43
2019-02-19T03:33:51.648Z,2.48
2019-02-19T03:34:51.672Z,2.38
2019-02-19T03:35:51.661Z,2.34
2019-02-19T03:36:51.677Z,2.38
2019-02-19T03:37:51.785Z,2.41
2019-02-19T03:38:51.714Z,2.42
2019-02-19T03:39:51.716Z,2.42
2019-02-19T03:40:51.729Z,2.34
2019-02-19T03:41:51.742Z,2.34
2019-02-19T03:42:51.753Z,2.3
2019-02-19T03:43:51.761Z,2.38
2019-02-19T03:45:06.442Z,2.38
2019-02-19T03:45:51.809Z,2.34
2019-02-19T03:47:06.469Z,2.31
2019-02-19T03:47:51.833Z,2.3
2019-02-19T03:48:51.829Z,2.31
2019-02-19T03:49:51.844Z,2.42
2019-02-19T03:50:51.865Z,2.3
2019-02-19T03:51:51.900Z,2.3
2019-02-19T03:52:51.986Z,2.48
2019-02-19T03:53:51.894Z,2.38
2019-02-19T03:54:51.912Z,2.41
2019-02-19T03:55:51.984Z,2.46
2019-02-19T03:56:51.933Z,2.35
2019-02-19T03:57:51.952Z,2.39
2019-02-19T03:58:51.961Z,2.35
2019-02-19T04:00:06.637Z,2.48
2019-02-19T04:00:51.992Z,2.49
2019-02-19T04:01:52.008Z,2.46
2019-02-19T04:02:52.018Z,2.34
2019-02-19T04:03:52.029Z,2.45
2019-02-19T04:04:52.040Z,2.48
2019-02-19T04:05:52.054Z,2.48
2019-02-19T04:06:52.066Z,2.54
2019-02-19T04:07:52.085Z,2.56
2019-02-19T04:08:52.105Z,2.53
2019-02-19T04:09:52.108Z,2.48
2019-02-19T04:10:52.117Z,2.48
2019-02-19T04:11:52.130Z,2.48
2019-02-19T04:12:52.152Z,2.52
2019-02-19T04:13:52.159Z,2.48
2019-02-19T04:14:52.177Z,2.67
2019-02-19T04:15:52.188Z,2.72
2019-02-19T04:16:53.742Z,2.6
2019-02-19T04:17:52.217Z,2.67
2019-02-19T04:19:06.893Z,2.79
2019-02-19T04:19:52.240Z,2.78
2019-02-19T04:20:52.253Z,2.69
2019-02-19T04:22:52.278Z,2.75
2019-02-19T04:23:52.296Z,2.74
2019-02-19T04:24:52.323Z,2.79
2019-02-19T04:25:52.317Z,2.74
2019-02-19T04:26:52.347Z,2.84
2019-02-19T04:28:07.009Z,2.89
2019-02-19T04:30:07.036Z,3.13
2019-02-19T04:30:52.385Z,3.1
2019-02-19T04:32:07.059Z,3.05
2019-02-19T04:32:52.412Z,3.14
2019-02-19T04:33:52.422Z,3.06
2019-02-19T04:35:07.099Z,3.15
2019-02-19T04:35:52.451Z,3.05
2019-02-19T04:36:52.467Z,3
2019-02-19T04:37:52.478Z,2.97
2019-02-19T04:38:52.490Z,3.08
2019-02-19T04:39:52.510Z,3.06
2019-02-19T04:40:52.523Z,3.14
2019-02-19T04:41:52.528Z,3.15
2019-02-19T04:42:52.549Z,3.05
2019-02-19T04:43:52.561Z,3.08
2019-02-19T04:44:52.577Z,3.11
2019-02-19T04:45:52.592Z,3.2
2019-02-19T04:46:52.704Z,3.17
2019-02-19T04:47:52.607Z,3.21
2019-02-19T04:48:52.743Z,3.2
2019-02-19T04:49:52.637Z,3.23
2019-02-19T04:51:07.314Z,3.23
2019-02-19T04:52:52.680Z,3.17
2019-02-19T04:53:52.706Z,3.26
2019-02-19T04:54:52.709Z,3.18
2019-02-19T04:55:52.716Z,3.39
2019-02-19T04:57:52.740Z,3.35
2019-02-19T04:58:52.758Z,3.35
2019-02-19T04:59:52.770Z,3.33
2019-02-19T05:00:52.784Z,3.42
2019-02-19T05:01:52.798Z,3.54
2019-02-19T05:02:54.062Z,3.48
2019-02-19T05:04:07.484Z,3.39
2019-02-19T05:04:52.837Z,3.36
2019-02-19T05:05:52.854Z,3.39
2019-02-19T05:07:52.630Z,3.31
2019-02-19T05:08:52.893Z,3.4
2019-02-19T05:09:52.940Z,3.35
2019-02-19T05:10:52.922Z,3.48
2019-02-19T05:11:52.937Z,3.43
2019-02-19T05:12:52.941Z,3.47
2019-02-19T05:13:52.960Z,3.42
2019-02-19T05:14:52.987Z,3.33
2019-02-19T05:15:52.996Z,3.42
2019-02-19T05:17:53.014Z,3.31
2019-02-19T05:18:53.021Z,3.43
2019-02-19T05:19:53.052Z,3.61
2019-02-19T05:20:53.048Z,3.52
2019-02-19T05:22:07.733Z,3.52
2019-02-19T05:22:53.084Z,3.75
2019-02-19T05:23:53.091Z,3.73
2019-02-19T05:24:53.110Z,3.57
2019-02-19T05:25:53.140Z,3.57
2019-02-19T05:26:53.133Z,3.58
2019-02-19T05:27:53.147Z,3.58
2019-02-19T05:28:53.159Z,3.52
2019-02-19T05:29:53.182Z,3.73
2019-02-19T05:30:53.188Z,3.72
2019-02-19T05:33:07.876Z,3.57
2019-02-19T05:33:53.226Z,3.83
2019-02-19T05:34:53.246Z,3.88
2019-02-19T05:35:53.250Z,3.84
2019-02-19T05:36:53.275Z,3.84
2019-02-19T05:37:53.288Z,3.76
2019-02-19T05:38:53.303Z,3.83
2019-02-19T05:39:53.307Z,3.84
2019-02-19T05:40:53.321Z,3.76
2019-02-19T05:41:53.334Z,3.72
2019-02-19T05:42:53.353Z,3.78
2019-02-19T05:43:53.361Z,3.83
2019-02-19T05:44:53.151Z,3.83
2019-02-19T05:45:53.391Z,3.84
2019-02-19T05:46:54.955Z,3.73
2019-02-19T05:47:53.439Z,3.79
2019-02-19T05:48:53.441Z,3.73
2019-02-19T05:49:53.440Z,3.79
2019-02-19T05:50:53.468Z,3.79
2019-02-19T05:51:53.471Z,3.84
2019-02-19T05:52:53.484Z,3.93
2019-02-19T05:54:07.914Z,3.87
2019-02-19T05:54:53.509Z,3.83
2019-02-19T05:55:53.538Z,3.83
2019-02-19T05:56:53.544Z,3.76
2019-02-19T05:57:53.556Z,3.84
2019-02-19T05:58:53.567Z,3.86
2019-02-19T06:00:08.248Z,3.79
2019-02-19T06:00:53.641Z,3.86
2019-02-19T06:01:53.609Z,3.9
2019-02-19T06:02:53.618Z,3.88
2019-02-19T06:03:53.389Z,3.91
2019-02-19T06:04:53.660Z,3.91
2019-02-19T06:05:53.661Z,3.9
2019-02-19T06:07:08.336Z,3.88
2019-02-19T06:07:53.700Z,4.04
2019-02-19T06:08:53.701Z,4
2019-02-19T06:10:08.382Z,4.05
2019-02-19T06:10:53.742Z,3.98
2019-02-19T06:11:53.743Z,4
2019-02-19T06:12:53.759Z,3.84
2019-02-19T06:13:53.775Z,3.98
2019-02-19T06:14:53.782Z,4.02
2019-02-19T06:15:53.802Z,4.15
2019-02-19T06:17:00.819Z,4.02
2019-02-19T06:17:53.838Z,4.08
2019-02-19T06:18:53.837Z,4
2019-02-19T06:19:53.971Z,4.04
2019-02-19T06:20:53.871Z,4.04
2019-02-19T06:22:08.543Z,4.02
2019-02-19T06:22:53.897Z,4.12
2019-02-19T06:24:08.614Z,4.06
2019-02-19T06:24:53.925Z,3.98
2019-02-19T06:26:08.603Z,4.12
2019-02-19T06:26:54.015Z,4.14
2019-02-19T06:27:53.976Z,4.14
2019-02-19T06:28:53.987Z,4.22
2019-02-19T06:29:53.991Z,4.15
2019-02-19T06:30:54.008Z,4.22
2019-02-19T06:31:53.869Z,4.29
2019-02-19T06:32:54.031Z,4.29
2019-02-19T06:33:54.051Z,4.33
2019-02-19T06:35:08.727Z,4.36
2019-02-19T06:36:54.099Z,4.44
2019-02-19T06:38:08.826Z,4.51
2019-02-19T06:38:54.217Z,4.5
2019-02-19T06:39:54.132Z,4.58
2019-02-19T06:40:54.152Z,4.51
2019-02-19T06:42:08.820Z,4.65
2019-02-19T06:42:54.172Z,4.69
2019-02-19T06:43:54.189Z,4.69
2019-02-19T06:44:54.205Z,4.63
2019-02-19T06:45:54.215Z,4.69
2019-02-19T06:46:54.233Z,4.72
2019-02-19T06:47:54.245Z,4.73
2019-02-19T06:48:54.258Z,4.7
2019-02-19T06:50:08.942Z,4.7
2019-02-19T06:51:54.307Z,4.69
2019-02-19T06:53:54.334Z,4.94
2019-02-19T06:54:54.347Z,4.96
2019-02-19T06:55:54.364Z,4.89
2019-02-19T06:57:54.393Z,4.86
2019-02-19T06:58:54.404Z,4.85
2019-02-19T06:59:54.423Z,4.91
2019-02-19T07:00:54.441Z,4.88
2019-02-19T07:01:54.451Z,5.06
2019-02-19T07:02:54.461Z,5.1
2019-02-19T07:03:54.480Z,5.13
2019-02-19T07:04:54.495Z,5.13
2019-02-19T07:05:54.554Z,5.22
2019-02-19T07:06:54.526Z,5.27
2019-02-19T07:07:54.547Z,5.31
2019-02-19T07:08:54.554Z,5.36
2019-02-19T07:10:09.232Z,5.48
2019-02-19T07:10:54.584Z,5.45
2019-02-19T07:11:54.600Z,5.53
2019-02-19T07:12:54.618Z,5.68
2019-02-19T07:13:54.630Z,5.74
2019-02-19T07:14:54.647Z,5.75
2019-02-19T07:16:09.337Z,5.82
2019-02-19T07:16:54.726Z,5.85
2019-02-19T07:17:54.693Z,5.99
2019-02-19T07:18:54.462Z,5.97
2019-02-19T07:19:54.725Z,6.01
2019-02-19T07:20:54.743Z,6.08
2019-02-19T07:21:54.760Z,6.06
2019-02-19T07:22:54.783Z,6.11
2019-02-19T07:24:04.145Z,6.19
2019-02-19T07:24:54.805Z,6.22
2019-02-19T07:25:54.924Z,6.3
2019-02-19T07:26:54.853Z,6.41
2019-02-19T07:27:54.857Z,6.54
2019-02-19T07:29:09.289Z,6.59
2019-02-19T07:29:54.893Z,6.62
2019-02-19T07:30:54.909Z,6.69
2019-02-19T07:31:54.947Z,6.71
2019-02-19T07:32:55.045Z,6.76
2019-02-19T07:33:54.960Z,6.89
2019-02-19T07:34:54.978Z,6.79
2019-02-19T07:35:54.997Z,6.88
2019-02-19T07:36:55.018Z,6.84
2019-02-19T07:38:55.048Z,6.99
2019-02-19T07:39:55.065Z,7.02
2019-02-19T07:40:55.088Z,7.13
2019-02-19T07:42:09.764Z,7.06
2019-02-19T07:42:55.123Z,7.09
2019-02-19T07:43:56.618Z,7.13
2019-02-19T07:45:09.816Z,7.13
2019-02-19T07:45:57.074Z,7.27
2019-02-19T07:46:55.187Z,7.31
2019-02-19T07:47:55.209Z,7.28
2019-02-19T07:48:55.271Z,7.28
2019-02-19T07:49:55.237Z,7.21
2019-02-19T07:50:55.255Z,7.23
2019-02-19T07:51:55.277Z,7.35
2019-02-19T07:53:55.307Z,7.32
2019-02-19T07:54:55.528Z,7.42
2019-02-19T07:55:55.343Z,7.48
2019-02-19T07:57:10.024Z,7.45
2019-02-19T07:57:55.377Z,7.45
2019-02-19T07:58:55.401Z,7.48
2019-02-19T07:59:55.410Z,7.5
2019-02-19T08:01:10.101Z,7.53
2019-02-19T08:01:55.456Z,7.5
2019-02-19T08:02:55.470Z,7.55
2019-02-19T08:03:55.481Z,7.49
2019-02-19T08:04:55.502Z,7.5
2019-02-19T08:05:55.512Z,7.49
2019-02-19T08:06:55.536Z,7.5
2019-02-19T08:07:55.548Z,7.55
2019-02-19T08:08:55.565Z,7.58
2019-02-19T08:09:55.583Z,7.63
2019-02-19T08:11:10.264Z,7.64
2019-02-19T08:11:55.624Z,7.63
2019-02-19T08:13:10.295Z,7.69
2019-02-19T08:13:55.650Z,7.68
2019-02-19T08:14:55.678Z,7.69
2019-02-19T08:15:55.686Z,7.71
2019-02-19T08:17:10.382Z,7.8
2019-02-19T08:17:55.718Z,7.69
2019-02-19T08:18:55.738Z,7.86
2019-02-19T08:19:55.760Z,7.85
2019-02-19T08:20:55.781Z,7.83
2019-02-19T08:21:55.790Z,8.04
2019-02-19T08:22:55.801Z,7.97
2019-02-19T08:23:55.821Z,8.04
2019-02-19T08:24:55.834Z,8.05
2019-02-19T08:25:55.896Z,8.05
2019-02-19T08:27:56.126Z,8.16
2019-02-19T08:29:13.595Z,8.26
2019-02-19T08:29:55.919Z,8.36
2019-02-19T08:30:55.938Z,8.28
2019-02-19T08:32:10.618Z,8.4
2019-02-19T08:32:55.976Z,8.4
2019-02-19T08:33:56.004Z,8.47
2019-02-19T08:34:56.007Z,8.43
2019-02-19T08:35:56.037Z,8.52
2019-02-19T08:36:56.041Z,8.5
2019-02-19T08:37:56.058Z,8.58
2019-02-19T08:38:56.076Z,8.61
2019-02-19T08:39:56.091Z,8.68
2019-02-19T08:40:56.310Z,8.71
2019-02-19T08:41:56.140Z,8.65
2019-02-19T08:42:56.148Z,8.84
2019-02-19T08:43:56.162Z,8.86
2019-02-19T08:44:56.177Z,8.87
2019-02-19T08:45:56.203Z,8.96
2019-02-19T08:46:56.244Z,9.08
2019-02-19T08:47:56.238Z,9.1
2019-02-19T08:48:56.252Z,9.14
2019-02-19T08:49:58.029Z,9.11
2019-02-19T08:50:56.399Z,9.24
2019-02-19T08:52:00.808Z,9.38
2019-02-19T08:52:56.317Z,9.32
2019-02-19T08:53:56.341Z,9.26
2019-02-19T08:55:56.380Z,9.38
2019-02-19T08:56:56.396Z,9.47
2019-02-19T08:57:56.714Z,9.53
2019-02-19T08:58:56.427Z,9.56
2019-02-19T08:59:56.444Z,9.6
2019-02-19T09:00:56.462Z,9.58
2019-02-19T09:01:56.480Z,9.58
2019-02-19T09:02:56.493Z,9.5
2019-02-19T09:04:11.176Z,9.56
2019-02-19T09:04:56.545Z,9.48
2019-02-19T09:05:56.595Z,9.61
2019-02-19T09:06:56.565Z,9.58
2019-02-19T09:07:56.580Z,9.61
2019-02-19T09:08:56.627Z,9.61
2019-02-19T09:09:56.621Z,9.6
2019-02-19T09:11:56.653Z,9.71
2019-02-19T09:12:56.670Z,9.86
2019-02-19T09:13:56.688Z,9.78
2019-02-19T09:14:56.733Z,9.86
2019-02-19T09:16:11.386Z,10.01
2019-02-19T09:16:56.748Z,9.93
2019-02-19T09:17:57.208Z,10.01
2019-02-19T09:18:56.776Z,9.97
2019-02-19T09:20:11.457Z,10.05
2019-02-19T09:20:56.918Z,10.05
2019-02-19T09:21:56.829Z,9.97
2019-02-19T09:22:56.844Z,10.04
2019-02-19T09:23:58.423Z,10.07
2019-02-19T09:24:56.885Z,10.04
2019-02-19T09:25:56.912Z,10.17
2019-02-19T09:26:56.917Z,10.07
2019-02-19T09:27:56.955Z,10.18
2019-02-19T09:28:56.954Z,10.23
2019-02-19T09:29:56.976Z,10.34
2019-02-19T09:30:56.989Z,10.4
2019-02-19T09:32:11.669Z,10.47
2019-02-19T09:32:57.035Z,10.38
2019-02-19T09:33:57.091Z,10.44
2019-02-19T09:34:57.545Z,10.42
2019-02-19T09:36:57.104Z,10.41
2019-02-19T09:37:57.112Z,10.38
2019-02-19T09:38:57.134Z,10.44
2019-02-19T09:39:57.160Z,10.33
2019-02-19T09:40:57.170Z,10.45
2019-02-19T09:42:57.200Z,10.34
2019-02-19T09:43:57.226Z,10.38
2019-02-19T09:44:57.238Z,10.34
2019-02-19T09:45:59.000Z,10.38
2019-02-19T09:46:57.284Z,10.32
2019-02-19T09:48:57.308Z,10.26
2019-02-19T09:49:57.326Z,10.27
2019-02-19T09:50:57.352Z,10.34
2019-02-19T09:53:04.747Z,10.26
2019-02-19T09:53:57.539Z,10.27
2019-02-19T09:54:57.417Z,10.15
2019-02-19T09:55:57.436Z,10.09
2019-02-19T09:56:57.452Z,10.14
2019-02-19T09:57:57.471Z,10.15
2019-02-19T09:58:57.489Z,10.15
2019-02-19T10:00:12.176Z,10.07
2019-02-19T10:00:57.277Z,10.11
2019-02-19T10:01:57.546Z,10.05
2019-02-19T10:02:57.563Z,10.22
2019-02-19T10:03:57.600Z,10.14
2019-02-19T10:04:57.618Z,10.25
2019-02-19T10:05:57.612Z,10.25
2019-02-19T10:07:12.392Z,10.26
2019-02-19T10:07:58.327Z,10.29
2019-02-19T10:08:57.763Z,10.36
2019-02-19T10:09:57.684Z,10.33
2019-02-19T10:10:57.700Z,10.27
2019-02-19T10:11:57.738Z,10.2
2019-02-19T10:12:57.749Z,10.26
2019-02-19T10:13:57.757Z,10.23
2019-02-19T10:14:57.791Z,10.26
2019-02-19T10:16:57.563Z,10.3
2019-02-19T10:17:57.825Z,10.36
2019-02-19T10:18:57.854Z,10.29
2019-02-19T10:20:13.447Z,10.29
2019-02-19T10:20:59.626Z,10.27
2019-02-19T10:21:57.931Z,10.23
2019-02-19T10:22:57.912Z,10.23
2019-02-19T10:23:57.931Z,10.29
2019-02-19T10:24:57.954Z,10.2
2019-02-19T10:25:57.966Z,10.14
2019-02-19T10:26:57.979Z,10.17
2019-02-19T10:27:58.013Z,10.2
2019-02-19T10:28:58.117Z,10.17
2019-02-19T10:29:58.034Z,10.15
2019-02-19T10:30:58.050Z,10.17
2019-02-19T10:31:58.077Z,10.22
2019-02-19T10:33:12.752Z,10.3
2019-02-19T10:33:58.104Z,10.26
2019-02-19T10:34:58.122Z,10.52
2019-02-19T10:35:58.143Z,10.59
2019-02-19T10:36:58.157Z,10.68
2019-02-19T10:37:58.175Z,10.78
2019-02-19T10:39:12.867Z,10.66
2019-02-19T10:39:58.209Z,10.7
2019-02-19T10:40:58.234Z,10.74
2019-02-19T10:41:58.247Z,10.76
2019-02-19T10:42:58.370Z,10.79
2019-02-19T10:43:58.279Z,10.86
2019-02-19T10:44:58.301Z,10.74
2019-02-19T10:45:58.343Z,10.63
2019-02-19T10:46:58.338Z,10.52
2019-02-19T10:49:58.403Z,10.38
2019-02-19T10:51:13.071Z,10.44
2019-02-19T10:51:58.424Z,10.38
2019-02-19T10:52:58.457Z,10.38
2019-02-19T10:53:58.461Z,10.36
2019-02-19T10:55:13.178Z,10.47
2019-02-19T10:55:58.499Z,10.51
2019-02-19T10:56:58.525Z,10.48
2019-02-19T10:57:58.535Z,10.51
2019-02-19T10:58:58.562Z,10.48
2019-02-19T10:59:58.583Z,10.63
2019-02-19T11:01:58.602Z,10.68
2019-02-19T11:02:58.627Z,10.71
2019-02-19T11:03:58.637Z,10.64
2019-02-19T11:04:58.658Z,10.63
2019-02-19T11:06:13.339Z,10.68
2019-02-19T11:06:58.702Z,10.67
2019-02-19T11:08:13.377Z,10.71
2019-02-19T11:08:58.729Z,10.85
2019-02-19T11:09:58.846Z,10.86
2019-02-19T11:11:13.527Z,10.84
2019-02-19T11:12:00.499Z,10.84
2019-02-19T11:13:58.833Z,10.84
2019-02-19T11:14:58.835Z,10.85
2019-02-19T11:15:58.855Z,10.85
2019-02-19T11:16:58.873Z,10.85
2019-02-19T11:17:58.643Z,10.86
2019-02-19T11:18:58.919Z,10.97
2019-02-19T11:19:58.929Z,10.99
2019-02-19T11:20:58.958Z,10.94
2019-02-19T11:21:58.983Z,10.91
2019-02-19T11:23:13.646Z,10.91
2019-02-19T11:23:59.052Z,10.92
2019-02-19T11:24:59.021Z,10.97
2019-02-19T11:25:59.035Z,11.06
2019-02-19T11:27:13.733Z,11.03
2019-02-19T11:28:59.092Z,11.07
2019-02-19T11:29:59.115Z,11.19
2019-02-19T11:30:59.129Z,11.22
2019-02-19T11:31:59.143Z,11.25
2019-02-19T11:32:59.163Z,11.22
2019-02-19T11:34:13.856Z,11.27
2019-02-19T11:34:59.200Z,11.37
2019-02-19T11:35:59.719Z,11.32
2019-02-19T11:36:59.252Z,11.33
2019-02-19T11:37:59.272Z,11.4
2019-02-19T11:38:59.279Z,11.22
2019-02-19T11:40:13.957Z,11.29
2019-02-19T11:41:14.006Z,11.29
2019-02-19T11:42:14.006Z,11.44
2019-02-19T11:42:59.452Z,11.55
2019-02-19T11:43:59.400Z,11.57
2019-02-19T11:44:59.388Z,11.64
2019-02-19T11:45:59.418Z,11.67
2019-02-19T11:46:59.434Z,11.65
2019-02-19T11:47:59.443Z,11.72
2019-02-19T11:49:01.045Z,11.65
2019-02-19T11:49:59.479Z,11.55
2019-02-19T11:50:59.502Z,11.54
2019-02-19T11:51:59.515Z,11.55
2019-02-19T11:52:59.542Z,11.58
2019-02-19T11:54:14.219Z,11.55
2019-02-19T11:54:59.570Z,11.49
2019-02-19T11:55:59.599Z,11.37
2019-02-19T11:56:59.626Z,11.33
2019-02-19T11:57:59.632Z,11.29
2019-02-19T11:58:59.399Z,11.29
2019-02-19T11:59:59.669Z,11.33
2019-02-19T12:00:59.686Z,11.29
2019-02-19T12:01:59.716Z,11.28
2019-02-19T12:02:59.721Z,11.35
2019-02-19T12:03:59.744Z,11.32
2019-02-19T12:05:59.782Z,11.11
2019-02-19T12:06:59.825Z,11.15
2019-02-19T12:09:14.499Z,11.19
2019-02-19T12:09:59.858Z,11.21
2019-02-19T12:10:59.871Z,11.11
2019-02-19T12:11:59.910Z,11.09
2019-02-19T12:12:59.907Z,11.18
2019-02-19T12:14:14.595Z,11.17
2019-02-19T12:15:00.094Z,11.28
2019-02-19T12:16:14.384Z,11.35
2019-02-19T12:17:14.655Z,11.33
2019-02-19T12:17:59.999Z,11.33
2019-02-19T12:19:00.025Z,11.46
2019-02-19T12:20:00.042Z,11.51
2019-02-19T12:21:00.057Z,11.57
2019-02-19T12:22:00.075Z,11.6
2019-02-19T12:23:00.100Z,11.62
2019-02-19T12:24:00.124Z,11.55
2019-02-19T12:25:00.278Z,11.52
2019-02-19T12:25:59.908Z,11.52
2019-02-19T12:27:00.175Z,11.43
2019-02-19T12:28:14.850Z,11.49
2019-02-19T12:29:00.214Z,11.55
2019-02-19T12:30:14.895Z,11.54
2019-02-19T12:31:00.357Z,11.54
2019-02-19T12:33:00.283Z,11.57
2019-02-19T12:34:00.318Z,11.58
2019-02-19T12:35:00.324Z,11.6
2019-02-19T12:36:00.336Z,11.7
2019-02-19T12:37:00.368Z,11.72
2019-02-19T12:38:00.377Z,11.65
2019-02-19T12:39:00.401Z,11.67
2019-02-19T12:40:00.424Z,11.65
2019-02-19T12:41:00.184Z,11.72
2019-02-19T12:42:00.451Z,11.69
2019-02-19T12:43:00.475Z,11.78
2019-02-19T12:44:00.488Z,11.78
2019-02-19T12:45:00.277Z,11.78
2019-02-19T12:46:15.190Z,11.7
2019-02-19T12:47:00.554Z,11.65
2019-02-19T12:48:00.569Z,11.6
2019-02-19T12:49:00.613Z,11.69
2019-02-19T12:50:00.604Z,11.65
2019-02-19T12:51:00.620Z,11.72
2019-02-19T12:52:00.645Z,11.61
2019-02-19T12:53:00.670Z,11.57
2019-02-19T12:54:00.687Z,11.62
2019-02-19T12:55:00.797Z,11.65
2019-02-19T12:56:00.719Z,11.69
2019-02-19T12:57:00.734Z,11.7
2019-02-19T12:58:00.758Z,11.73
2019-02-19T12:59:00.792Z,11.83
2019-02-19T13:00:01.596Z,11.67
2019-02-19T13:01:00.811Z,11.67
2019-02-19T13:02:15.508Z,11.64
2019-02-19T13:03:00.850Z,11.67
2019-02-19T13:04:00.871Z,11.61
2019-02-19T13:05:00.888Z,11.75
2019-02-19T13:06:01.053Z,11.65
2019-02-19T13:07:00.933Z,11.67
2019-02-19T13:08:00.942Z,11.64
2019-02-19T13:09:00.973Z,11.67
2019-02-19T13:10:01.032Z,11.62
2019-02-19T13:11:01.024Z,11.69
2019-02-19T13:12:01.033Z,11.73
2019-02-19T13:13:01.042Z,11.64
2019-02-19T13:14:01.073Z,11.65
2019-02-19T13:15:01.077Z,11.73
2019-02-19T13:16:01.098Z,11.6
2019-02-19T13:17:15.781Z,11.49
2019-02-19T13:18:01.141Z,11.51
2019-02-19T13:19:08.230Z,11.49
2019-02-19T13:20:01.277Z,11.42
2019-02-19T13:21:01.253Z,11.39
2019-02-19T13:22:01.214Z,11.44
2019-02-19T13:23:01.262Z,11.43
2019-02-19T13:24:01.274Z,11.39
2019-02-19T13:25:01.273Z,11.43
2019-02-19T13:26:01.295Z,11.44
2019-02-19T13:27:15.971Z,11.35
2019-02-19T13:28:01.324Z,11.46
2019-02-19T13:29:01.360Z,11.47
2019-02-19T13:30:16.026Z,11.36
2019-02-19T13:31:01.391Z,11.32
2019-02-19T13:32:01.399Z,11.36
2019-02-19T13:33:01.421Z,11.28
2019-02-19T13:34:01.437Z,11.32
2019-02-19T13:35:01.456Z,11.29
2019-02-19T13:36:01.485Z,11.22
2019-02-19T13:37:01.506Z,11.29
2019-02-19T13:38:01.512Z,11.24
2019-02-19T13:39:01.532Z,11.22
2019-02-19T13:40:01.549Z,11.18
2019-02-19T13:41:01.584Z,11.18
2019-02-19T13:42:01.587Z,11.25
2019-02-19T13:43:01.614Z,11.35
2019-02-19T13:44:01.642Z,11.37
2019-02-19T13:45:01.650Z,11.43
2019-02-19T13:46:01.663Z,11.51
2019-02-19T13:47:01.686Z,11.49
2019-02-19T13:48:10.435Z,11.44
2019-02-19T13:49:16.395Z,11.55
2019-02-19T13:50:01.746Z,11.58
2019-02-19T13:52:01.772Z,11.57
2019-02-19T13:53:01.795Z,11.44
2019-02-19T13:54:01.825Z,11.44
2019-02-19T13:55:01.830Z,11.32
2019-02-19T13:56:01.851Z,11.22
2019-02-19T13:57:01.872Z,11.29
2019-02-19T13:58:03.455Z,11.25
2019-02-19T13:59:01.916Z,11.27
2019-02-19T14:00:02.024Z,11.25
2019-02-19T14:01:01.944Z,11.25
2019-02-19T14:02:16.625Z,11.24